createdAt,value
2019-05-23T00:02:36.303Z,86.60
2019-05-23T00:05:08.371Z,86.30
2019-05-23T00:07:39.747Z,86.10
2019-05-23T00:10:12.056Z,86.00
2019-05-23T00:12:43.957Z,85.80
2019-05-23T00:15:18.485Z,85.70
2019-05-23T00:17:49.942Z,85.90
2019-05-23T00:20:22.269Z,85.80
2019-05-23T00:22:53.034Z,85.50
2019-05-23T00:25:24.601Z,85.70
2019-05-23T00:27:56.889Z,85.60
2019-05-23T00:30:30.092Z,86.30
2019-05-23T00:33:02.455Z,85.50
2019-05-23T00:35:35.457Z,86.10
2019-05-23T00:38:07.002Z,85.50
2019-05-23T00:40:38.099Z,85.10
2019-05-23T00:43:10.432Z,85.30
2019-05-23T00:45:41.836Z,85.90
2019-05-23T00:48:14.868Z,85.30
2019-05-23T00:50:45.908Z,85.10
2019-05-23T00:53:16.928Z,84.90
2019-05-23T00:55:49.539Z,84.90
2019-05-23T00:58:20.911Z,85.50
2019-05-23T01:00:52.333Z,84.50
2019-05-23T01:03:23.440Z,84.40
2019-05-23T01:05:54.481Z,84.40
2019-05-23T01:08:27.162Z,84.20
2019-05-23T01:11:00.026Z,84.20
2019-05-23T01:13:32.684Z,83.80
2019-05-23T01:16:05.073Z,83.80
2019-05-23T01:18:36.435Z,84.00
2019-05-23T01:21:09.151Z,83.90
2019-05-23T01:23:41.596Z,83.50
2019-05-23T01:26:13.466Z,83.20
2019-05-23T01:28:45.786Z,82.90
2019-05-23T01:31:17.794Z,82.70
2019-05-23T01:33:50.237Z,82.60
2019-05-23T01:36:22.549Z,83.20
2019-05-23T01:38:53.991Z,82.20
2019-05-23T01:41:30.067Z,82.20
2019-05-23T01:44:01.690Z,82.20
2019-05-23T01:46:32.959Z,82.20
2019-05-23T01:49:05.239Z,81.90
2019-05-23T01:51:37.637Z,81.60
2019-05-23T01:54:09.025Z,81.30
2019-05-23T01:56:40.601Z,81.40
2019-05-23T01:59:11.976Z,81.30
2019-05-23T02:01:43.017Z,80.80
2019-05-23T02:04:14.179Z,80.00
2019-05-23T02:06:55.409Z,79.60
2019-05-23T02:09:27.106Z,79.70
2019-05-23T02:11:58.202Z,78.60
2019-05-23T02:14:29.797Z,78.50
2019-05-23T02:17:01.386Z,78.60
2019-05-23T02:19:33.042Z,78.70
2019-05-23T02:22:04.344Z,78.70
2019-05-23T02:24:35.573Z,78.20
2019-05-23T02:27:08.807Z,78.30
2019-05-23T02:29:42.077Z,77.80
2019-05-23T02:32:14.635Z,77.70
2019-05-23T02:34:45.973Z,77.10
2019-05-23T02:37:18.027Z,77.00
2019-05-23T02:39:48.656Z,77.00
2019-05-23T02:42:20.979Z,76.90
2019-05-23T02:44:52.419Z,76.70
2019-05-23T02:47:25.737Z,76.60
2019-05-23T02:49:57.594Z,76.10
2019-05-23T02:52:32.160Z,75.60
2019-05-23T02:55:10.769Z,75.40
2019-05-23T02:57:42.784Z,75.60
2019-05-23T03:00:17.246Z,73.90
2019-05-23T03:02:51.680Z,74.00
2019-05-23T03:05:25.728Z,74.20
2019-05-23T03:07:59.391Z,73.50
2019-05-23T03:10:34.037Z,73.90
2019-05-23T03:13:07.001Z,73.80
2019-05-23T03:15:39.608Z,73.60
2019-05-23T03:18:12.889Z,73.10
2019-05-23T03:20:44.116Z,73.70
2019-05-23T03:23:16.791Z,73.70
2019-05-23T03:25:50.203Z,72.00
2019-05-23T03:28:22.160Z,72.70
2019-05-23T03:31:21.687Z,73.00
2019-05-23T03:33:28.324Z,72.60
2019-05-23T03:36:00.563Z,71.00
2019-05-23T03:38:32.618Z,72.30
2019-05-23T03:41:06.235Z,71.90
2019-05-23T03:43:38.043Z,71.50
2019-05-23T03:46:10.408Z,71.80
2019-05-23T03:48:42.048Z,71.50
2019-05-23T03:51:13.376Z,72.10
2019-05-23T03:53:44.579Z,71.70
2019-05-23T03:56:16.525Z,71.30
2019-05-23T03:58:48.792Z,70.60
2019-05-23T04:01:21.626Z,70.90
2019-05-23T04:03:52.751Z,71.50
2019-05-23T04:06:23.970Z,71.30
2019-05-23T04:08:55.541Z,70.60
2019-05-23T04:11:27.335Z,70.50
2019-05-23T04:13:58.731Z,71.00
2019-05-23T04:16:30.840Z,68.80
2019-05-23T04:19:01.770Z,68.90
2019-05-23T04:21:33.075Z,69.50
2019-05-23T04:24:04.304Z,68.50
2019-05-23T04:26:54.996Z,69.30
2019-05-23T04:29:26.481Z,69.30
2019-05-23T04:32:07.862Z,69.70
2019-05-23T04:34:30.159Z,70.10
2019-05-23T04:37:01.471Z,68.60
2019-05-23T04:39:32.459Z,69.90
2019-05-23T04:42:03.355Z,69.30
2019-05-23T04:44:34.258Z,69.50
2019-05-23T04:47:06.684Z,69.10
2019-05-23T04:49:38.209Z,68.80
2019-05-23T04:52:10.338Z,69.00
2019-05-23T04:54:42.107Z,68.60
2019-05-23T04:57:14.261Z,68.00
2019-05-23T04:59:45.209Z,68.30
2019-05-23T05:02:25.665Z,68.40
2019-05-23T05:04:48.831Z,68.90
2019-05-23T05:07:19.752Z,69.30
2019-05-23T05:09:50.817Z,68.90
2019-05-23T05:12:22.566Z,67.90
2019-05-23T05:14:53.542Z,68.00
2019-05-23T05:17:25.031Z,68.00
2019-05-23T05:19:56.100Z,68.60
2019-05-23T05:22:27.570Z,68.50
2019-05-23T05:24:58.456Z,68.70
2019-05-23T05:27:29.479Z,68.60
2019-05-23T05:30:02.241Z,68.00
2019-05-23T05:32:44.057Z,68.00
2019-05-23T05:35:08.369Z,68.30
2019-05-23T05:37:39.239Z,67.70
2019-05-23T05:40:11.336Z,67.80
2019-05-23T05:42:44.432Z,67.60
2019-05-23T05:45:16.240Z,67.90
2019-05-23T05:47:47.469Z,67.20
2019-05-23T05:50:18.947Z,67.30
2019-05-23T05:52:49.975Z,67.10
2019-05-23T05:55:21.115Z,67.70
2019-05-23T05:57:52.031Z,67.30
2019-05-23T06:00:24.790Z,66.40
2019-05-23T06:03:04.521Z,67.10
2019-05-23T06:05:30.747Z,66.90
2019-05-23T06:08:02.490Z,67.00
2019-05-23T06:10:33.810Z,67.10
2019-05-23T06:13:04.867Z,67.60
2019-05-23T06:15:36.205Z,67.00
2019-05-23T06:18:07.460Z,66.50
2019-05-23T06:20:40.904Z,67.40
2019-05-23T06:23:12.941Z,66.40
2019-05-23T06:25:43.981Z,66.40
2019-05-23T06:28:16.731Z,66.70
2019-05-23T06:30:49.012Z,65.80
2019-05-23T06:33:23.880Z,66.40
2019-05-23T06:35:52.809Z,66.20
2019-05-23T06:38:24.429Z,66.50
2019-05-23T06:40:57.159Z,66.00
2019-05-23T06:43:28.367Z,62.00
2019-05-23T06:46:00.179Z,62.60
2019-05-23T06:48:31.463Z,64.50
2019-05-23T06:51:03.672Z,64.40
2019-05-23T06:53:34.520Z,64.90
2019-05-23T06:56:09.796Z,64.70
2019-05-23T06:58:40.628Z,64.20
2019-05-23T07:01:11.850Z,64.40
2019-05-23T07:03:43.994Z,63.50
2019-05-23T07:06:17.846Z,64.30
2019-05-23T07:08:48.716Z,60.70
2019-05-23T07:11:21.309Z,62.00
2019-05-23T07:13:52.983Z,62.90
2019-05-23T07:16:23.776Z,63.40
2019-05-23T07:18:54.738Z,63.90
2019-05-23T07:21:26.277Z,63.30
2019-05-23T07:23:57.146Z,63.30
2019-05-23T07:26:28.619Z,63.80
2019-05-23T07:29:01.296Z,63.20
2019-05-23T07:31:35.519Z,62.50
2019-05-23T07:34:05.539Z,62.50
2019-05-23T07:36:37.081Z,61.60
2019-05-23T07:39:11.637Z,62.60
2019-05-23T07:41:42.780Z,62.50
2019-05-23T07:44:13.736Z,62.00
2019-05-23T07:46:44.796Z,62.00
2019-05-23T07:49:15.834Z,63.10
2019-05-23T07:51:48.163Z,61.80
2019-05-23T07:54:20.461Z,61.50
2019-05-23T07:56:51.391Z,61.20
2019-05-23T07:59:22.286Z,60.40
2019-05-23T08:01:58.554Z,60.00
2019-05-23T08:04:30.052Z,59.30
2019-05-23T08:07:01.268Z,59.90
2019-05-23T08:09:33.101Z,60.20
2019-05-23T08:12:04.140Z,60.60
2019-05-23T08:14:35.797Z,60.20
2019-05-23T08:17:08.603Z,59.60
2019-05-23T08:19:49.189Z,58.90
2019-05-23T08:22:12.128Z,59.40
2019-05-23T08:24:45.277Z,59.60
2019-05-23T08:27:17.333Z,59.20
2019-05-23T08:29:50.307Z,59.20
2019-05-23T08:32:22.648Z,59.10
2019-05-23T08:34:54.168Z,59.80
2019-05-23T08:37:25.168Z,59.10
2019-05-23T08:39:56.552Z,58.10
2019-05-23T08:42:27.887Z,59.20
2019-05-23T08:45:03.305Z,58.10
2019-05-23T08:47:34.467Z,58.30
2019-05-23T08:50:07.795Z,58.80
2019-05-23T08:52:38.856Z,58.90
2019-05-23T08:55:12.316Z,58.70
2019-05-23T08:57:43.417Z,59.00
2019-05-23T09:00:14.721Z,58.70
2019-05-23T09:02:48.463Z,59.50
2019-05-23T09:05:20.488Z,60.00
2019-05-23T09:07:51.760Z,60.40
2019-05-23T09:10:23.897Z,60.00
2019-05-23T09:12:56.032Z,60.70
2019-05-23T09:15:27.897Z,60.60
2019-05-23T09:17:59.599Z,61.00
2019-05-23T09:20:31.014Z,61.30
2019-05-23T09:23:02.145Z,61.00
2019-05-23T09:25:33.939Z,60.80
2019-05-23T09:38:58.305Z,59.20
2019-05-23T09:41:39.128Z,59.60
2019-05-23T09:44:10.415Z,60.50
2019-05-23T09:46:41.629Z,60.30
2019-05-23T09:49:13.293Z,60.90
2019-05-23T09:51:55.217Z,61.70
2019-05-23T09:54:25.993Z,62.20
2019-05-23T09:56:56.874Z,63.30
2019-05-23T09:59:28.097Z,64.20
2019-05-23T10:02:00.363Z,65.10
2019-05-23T10:04:32.473Z,65.70
2019-05-23T10:07:03.707Z,67.00
2019-05-23T10:10:30.603Z,67.30
2019-05-23T10:16:26.370Z,68.70
2019-05-23T10:18:57.614Z,68.70
2019-05-23T10:21:28.549Z,69.00
2019-05-23T10:23:59.394Z,69.40
2019-05-23T10:26:30.346Z,69.60
2019-05-23T10:29:01.246Z,70.60
2019-05-23T10:31:32.025Z,70.60
2019-05-23T10:34:02.795Z,71.00
2019-05-23T10:36:33.687Z,71.50
2019-05-23T10:39:04.773Z,71.70
2019-05-23T10:41:35.664Z,72.20
2019-05-23T10:44:07.350Z,71.60
2019-05-23T10:46:38.257Z,72.80
2019-05-23T10:49:09.449Z,74.10
2019-05-23T10:51:40.407Z,73.50
2019-05-23T10:54:11.709Z,73.30
2019-05-23T10:56:42.461Z,73.60
2019-05-23T10:59:13.437Z,73.70
2019-05-23T11:01:45.053Z,74.10
2019-05-23T11:04:16.070Z,73.60
2019-05-23T11:06:47.070Z,74.00
2019-05-23T11:09:18.420Z,74.20
2019-05-23T11:11:49.087Z,74.70
2019-05-23T11:14:19.932Z,74.80
2019-05-23T11:16:51.341Z,74.90
2019-05-23T11:19:22.359Z,75.20
2019-05-23T11:21:53.251Z,74.90
2019-05-23T11:24:24.276Z,75.70
2019-05-23T11:26:55.206Z,75.70
2019-05-23T11:29:27.397Z,75.80
2019-05-23T11:31:58.618Z,76.40
2019-05-23T11:34:30.066Z,76.60
2019-05-23T11:37:00.849Z,76.10
2019-05-23T11:39:32.229Z,75.70
2019-05-23T11:42:03.256Z,76.30
2019-05-23T11:44:34.193Z,76.30
2019-05-23T11:47:05.385Z,76.40
2019-05-23T11:49:36.334Z,77.50
2019-05-23T11:52:07.635Z,77.20
2019-05-23T11:54:39.498Z,77.40
2019-05-23T11:57:10.853Z,78.50
2019-05-23T11:59:42.065Z,78.00
2019-05-23T12:02:14.146Z,78.60
2019-05-23T12:04:45.362Z,78.30
2019-05-23T12:07:17.618Z,78.10
2019-05-23T12:09:48.827Z,78.00
2019-05-23T12:12:19.890Z,77.90
2019-05-23T12:14:50.705Z,78.40
2019-05-23T12:17:22.627Z,79.30
2019-05-23T12:19:53.540Z,78.10
2019-05-23T12:22:24.712Z,77.50
2019-05-23T12:24:55.466Z,77.10
2019-05-23T12:27:26.452Z,77.70
2019-05-23T12:29:57.652Z,78.30
2019-05-23T12:32:28.391Z,79.00
2019-05-23T12:35:10.558Z,79.80
2019-05-23T12:37:31.416Z,80.50
2019-05-23T12:40:02.628Z,80.50
2019-05-23T12:42:33.482Z,81.20
2019-05-23T12:45:04.438Z,80.40
2019-05-23T12:47:36.503Z,80.20
2019-05-23T12:50:09.814Z,80.80
2019-05-23T12:52:40.730Z,81.60
2019-05-23T12:55:11.979Z,82.90
2019-05-23T12:57:43.459Z,81.90
2019-05-23T13:00:16.670Z,81.30
2019-05-23T13:02:47.814Z,81.80
2019-05-23T13:05:19.382Z,82.40
2019-05-23T13:07:50.423Z,82.60
2019-05-23T13:10:24.501Z,82.40
2019-05-23T13:12:53.673Z,82.10
2019-05-23T13:15:25.328Z,82.30
2019-05-23T13:17:56.162Z,82.80
2019-05-23T13:20:27.049Z,84.30
2019-05-23T13:22:58.165Z,83.10
2019-05-23T13:25:30.110Z,82.90
2019-05-23T13:28:01.370Z,82.40
2019-05-23T13:30:32.742Z,82.30
2019-05-23T13:33:04.143Z,81.80
2019-05-23T13:35:35.521Z,81.60
2019-05-23T13:38:06.559Z,81.70
2019-05-23T13:40:37.365Z,81.60
2019-05-23T13:43:09.224Z,81.40
2019-05-23T13:45:40.200Z,81.30
2019-05-23T13:48:11.021Z,80.90
2019-05-23T13:50:42.221Z,80.80
2019-05-23T13:53:13.323Z,80.60
2019-05-23T13:55:44.789Z,80.70
2019-05-23T13:58:16.627Z,81.20
2019-05-23T14:00:47.666Z,80.90
2019-05-23T14:03:18.872Z,80.50
2019-05-23T14:05:49.453Z,80.40
2019-05-23T14:08:20.378Z,80.20
2019-05-23T14:10:51.318Z,80.20
2019-05-23T14:13:22.572Z,80.30
2019-05-23T14:15:53.917Z,80.70
2019-05-23T14:18:26.283Z,80.70
2019-05-23T14:20:57.054Z,80.50
2019-05-23T14:23:29.273Z,80.40
2019-05-23T14:26:00.903Z,80.30
2019-05-23T14:28:32.048Z,80.20
2019-05-23T14:31:04.272Z,80.70
2019-05-23T14:33:36.428Z,80.40
2019-05-23T14:36:08.822Z,80.30
2019-05-23T14:38:39.882Z,80.50
2019-05-23T14:41:11.113Z,80.50
2019-05-23T14:43:42.265Z,80.70
2019-05-23T14:46:14.602Z,81.10
2019-05-23T14:48:46.654Z,80.90
2019-05-23T14:51:18.889Z,81.10
2019-05-23T14:53:49.554Z,82.00
2019-05-23T14:56:21.762Z,82.00
2019-05-23T14:58:53.569Z,81.50
2019-05-23T15:01:26.067Z,81.50
2019-05-23T15:03:57.059Z,81.90
2019-05-23T15:06:28.052Z,81.80
2019-05-23T15:08:58.910Z,81.90
2019-05-23T15:11:29.857Z,82.00
2019-05-23T15:14:00.936Z,81.80
2019-05-23T15:16:31.948Z,81.70
2019-05-23T15:19:02.869Z,81.60
2019-05-23T15:21:33.791Z,81.40
2019-05-23T15:24:04.907Z,81.30
2019-05-23T15:26:35.924Z,81.60
2019-05-23T15:29:07.508Z,81.70
2019-05-23T15:31:38.402Z,82.00
2019-05-23T15:34:09.286Z,83.00
2019-05-23T15:36:40.167Z,83.30
2019-05-23T15:39:11.097Z,83.00
2019-05-23T15:41:42.086Z,83.70
2019-05-23T15:44:26.182Z,83.90
2019-05-23T15:46:45.077Z,83.80
2019-05-23T15:49:16.666Z,84.20
2019-05-23T15:51:53.545Z,84.90
2019-05-23T15:54:22.329Z,83.30
2019-05-23T15:56:54.475Z,83.40
2019-05-23T15:59:26.627Z,84.40
2019-05-23T16:01:58.753Z,84.70
2019-05-23T16:04:29.819Z,84.80
2019-05-23T16:07:01.315Z,84.90
2019-05-23T16:09:32.476Z,84.80
2019-05-23T16:12:03.232Z,84.40
2019-05-23T16:14:34.281Z,85.80
2019-05-23T16:17:06.518Z,85.30
2019-05-23T16:19:37.754Z,85.70
2019-05-23T16:22:08.846Z,85.70
2019-05-23T16:24:40.245Z,85.80
2019-05-23T16:27:11.492Z,85.40
2019-05-23T16:29:42.660Z,85.60
2019-05-23T16:32:13.559Z,86.10
2019-05-23T16:34:44.331Z,85.60
2019-05-23T16:37:15.585Z,86.10
2019-05-23T16:39:48.548Z,85.50
2019-05-23T16:42:19.072Z,85.50
2019-05-23T16:44:49.991Z,86.60
2019-05-23T16:47:21.368Z,86.30
2019-05-23T16:49:52.248Z,86.30
2019-05-23T16:52:23.079Z,86.30
2019-05-23T16:54:55.207Z,87.30
2019-05-23T16:57:27.557Z,87.10
2019-05-23T16:59:59.799Z,86.70
2019-05-23T17:02:31.827Z,86.30
2019-05-23T17:05:09.952Z,85.90
2019-05-23T17:07:38.093Z,86.20
2019-05-23T17:10:10.468Z,87.10
2019-05-23T17:12:41.179Z,86.40
2019-05-23T17:15:13.696Z,86.40
2019-05-23T17:18:01.311Z,86.20
2019-05-23T17:20:20.072Z,86.40
2019-05-23T17:22:51.735Z,87.10
2019-05-23T17:25:23.949Z,87.10
2019-05-23T17:27:56.084Z,87.30
2019-05-23T17:30:26.730Z,87.60
2019-05-23T17:32:58.008Z,87.10
2019-05-23T17:35:28.780Z,87.60
2019-05-23T17:37:59.612Z,87.30
2019-05-23T17:40:30.641Z,87.40
2019-05-23T17:43:01.403Z,87.80
2019-05-23T17:45:32.655Z,88.00
2019-05-23T17:48:03.608Z,88.10
2019-05-23T17:50:34.992Z,88.00
2019-05-23T17:53:06.095Z,87.80
2019-05-23T17:55:37.460Z,87.80
2019-05-23T17:58:11.003Z,88.30
2019-05-23T18:00:43.830Z,88.40
2019-05-23T18:03:15.458Z,88.00
2019-05-23T18:05:46.573Z,87.80
2019-05-23T18:08:18.721Z,88.20
2019-05-23T18:10:49.975Z,87.80
2019-05-23T18:13:20.880Z,88.00
2019-05-23T18:15:51.834Z,88.40
2019-05-23T18:18:22.960Z,88.60
2019-05-23T18:20:54.409Z,88.30
2019-05-23T18:23:25.462Z,88.40
2019-05-23T18:25:56.796Z,88.90
2019-05-23T18:28:27.681Z,88.80
2019-05-23T18:31:00.020Z,88.70
2019-05-23T18:33:31.323Z,88.50
2019-05-23T18:36:03.304Z,88.60
2019-05-23T18:38:34.527Z,88.40
2019-05-23T18:41:08.954Z,88.50
2019-05-23T18:43:39.267Z,88.50
2019-05-23T18:46:11.303Z,88.40
2019-05-23T18:48:42.796Z,88.50
2019-05-23T18:51:13.978Z,88.40
2019-05-23T18:53:45.104Z,88.00
2019-05-23T18:56:16.451Z,88.00
2019-05-23T18:58:47.511Z,87.80
2019-05-23T19:01:19.597Z,87.80
2019-05-23T19:03:50.744Z,88.10
2019-05-23T19:06:22.342Z,88.20
2019-05-23T19:08:53.194Z,88.40
2019-05-23T19:11:24.344Z,88.30
2019-05-23T19:13:55.297Z,88.20
2019-05-23T19:16:26.519Z,88.10
2019-05-23T19:18:57.360Z,88.20
2019-05-23T19:21:29.665Z,88.20
2019-05-23T19:24:00.744Z,88.30
2019-05-23T19:26:32.425Z,88.60
2019-05-23T19:29:03.102Z,88.30
2019-05-23T19:31:34.494Z,88.20
2019-05-23T19:34:05.972Z,88.10
2019-05-23T19:36:37.360Z,87.90
2019-05-23T19:39:09.079Z,87.70
2019-05-23T19:41:39.852Z,87.60
2019-05-23T19:44:10.739Z,87.90
2019-05-23T19:46:42.147Z,87.50
2019-05-23T19:49:13.887Z,87.40
2019-05-23T19:51:44.890Z,87.70
2019-05-23T19:54:15.926Z,87.80
2019-05-23T19:56:46.610Z,87.30
2019-05-23T19:59:20.809Z,87.10
2019-05-23T20:01:51.421Z,87.00
2019-05-23T20:04:27.090Z,87.20
2019-05-23T20:06:56.781Z,87.10
2019-05-23T20:09:27.762Z,87.10
2019-05-23T20:11:58.736Z,87.30
2019-05-23T20:14:29.650Z,87.10
2019-05-23T20:17:00.462Z,87.30
2019-05-23T20:19:31.283Z,87.40
2019-05-23T20:22:02.255Z,87.50
2019-05-23T20:24:33.242Z,87.90
2019-05-23T20:27:03.999Z,87.70
2019-05-23T20:29:34.603Z,88.40
2019-05-23T20:32:06.548Z,88.40
2019-05-23T20:34:37.610Z,88.20
2019-05-23T20:37:09.034Z,88.40
2019-05-23T20:39:41.097Z,88.70
2019-05-23T20:42:12.253Z,88.40
2019-05-23T20:44:43.378Z,88.60
2019-05-23T20:47:14.312Z,88.70
2019-05-23T20:49:46.421Z,88.80
2019-05-23T20:52:17.636Z,89.70
2019-05-23T20:54:48.420Z,88.70
2019-05-23T20:57:19.745Z,88.70
2019-05-23T20:59:50.555Z,88.90
2019-05-23T21:02:21.499Z,89.10
2019-05-23T21:04:52.235Z,89.20
2019-05-23T21:07:23.310Z,89.30
2019-05-23T21:09:54.281Z,89.40
2019-05-23T21:12:30.178Z,89.50
2019-05-23T21:14:57.085Z,89.30
2019-05-23T21:17:28.919Z,89.60
2019-05-23T21:19:59.705Z,89.50
2019-05-23T21:22:30.775Z,89.50
2019-05-23T21:25:01.670Z,89.30
2019-05-23T21:27:32.584Z,89.40
2019-05-23T21:30:03.280Z,89.50
2019-05-23T21:32:34.004Z,89.50
2019-05-23T21:35:05.005Z,89.70
2019-05-23T21:37:36.016Z,89.80
2019-05-23T21:40:08.145Z,89.80
2019-05-23T21:42:47.696Z,89.60
2019-05-23T21:45:11.801Z,89.90
2019-05-23T21:47:42.522Z,89.50
2019-05-23T21:50:13.719Z,89.50
2019-05-23T21:52:44.639Z,89.70
2019-05-23T21:55:17.702Z,89.90
2019-05-23T21:57:48.266Z,90.10
2019-05-23T22:00:22.741Z,89.50
2019-05-23T22:02:53.638Z,89.50
2019-05-23T22:05:24.838Z,89.30
2019-05-23T22:07:55.494Z,89.20
2019-05-23T22:10:26.645Z,89.40
2019-05-23T22:13:04.409Z,89.40
2019-05-23T22:15:32.481Z,89.50
2019-05-23T22:18:03.391Z,89.50
2019-05-23T22:20:34.599Z,89.40
2019-05-23T22:23:05.830Z,89.30
2019-05-23T22:25:36.709Z,89.30
2019-05-23T22:28:07.497Z,89.70
2019-05-23T22:30:38.808Z,89.50
2019-05-23T22:33:10.249Z,89.60
2019-05-23T22:35:41.209Z,90.30
